Time;durP1;ratioP1;P1;durP2;ratioP2;P2;SDS_P1;SDS_P2;PMS_P1;PMS_P2;Temp;Humidity;BMP_temperature;BMP_pressure;BME280_temperature;BME280_humidity;BME280_pressure;Samples;Min_cycle;Max_cycle;Signal;HPM_P1;HPM_P2
2022/11/16 00:01:42;;;;;;;2.97;1.63;;;;;;;18.65;52.51;99612.97;4958232;28;20030;-70
2022/11/16 00:04:08;;;;;;;4.22;2.30;;;;;;;18.64;53.00;99611.31;4958115;28;20503;-69
2022/11/16 00:06:34;;;;;;;1.75;1.48;;;;;;;18.64;53.03;99616.75;4958091;28;20027;-71
2022/11/16 00:11:45;;;;;;;3.72;2.20;;;;;;;18.60;52.96;99604.63;4973983;28;20507;-70
2022/11/16 00:14:10;;;;;;;2.17;1.58;;;;;;;18.57;52.78;99600.47;4974270;28;20113;-71
2022/11/16 00:16:36;;;;;;;3.72;1.63;;;;;;;18.55;52.84;99610.72;4955530;28;20042;-69
2022/11/16 00:19:03;;;;;;;3.78;2.00;;;;;;;18.56;52.54;99603.41;4947143;29;20066;-70
2022/11/16 00:21:29;;;;;;;3.17;1.88;;;;;;;18.57;52.92;99621.34;4955205;29;20397;-71
2022/11/16 00:23:55;;;;;;;3.28;1.98;;;;;;;18.55;52.83;99612.56;4954520;28;20035;-70
2022/11/16 00:26:20;;;;;;;2.30;1.55;;;;;;;18.57;52.98;99615.91;4954456;29;20073;-70
2022/11/16 00:28:46;;;;;;;3.78;1.80;;;;;;;18.56;52.75;99614.25;4970418;28;20489;-70
2022/11/16 00:31:11;;;;;;;4.35;1.48;;;;;;;18.53;53.61;99604.66;4954470;29;20393;-69
2022/11/16 00:33:41;;;;;;;3.10;1.85;;;;;;;18.56;52.74;99608.84;4954415;28;20054;-69
2022/11/16 00:36:09;;;;;;;1.88;1.33;;;;;;;18.53;52.96;99620.09;4955162;28;20463;-71
2022/11/16 00:38:34;;;;;;;2.33;1.67;;;;;;;18.52;53.46;99623.84;4954313;29;20059;-70
2022/11/16 00:40:59;;;;;;;2.17;1.80;;;;;;;18.50;53.44;99618.66;4954031;29;20009;-70
2022/11/16 00:43:25;;;;;;;2.08;1.60;;;;;;;18.49;52.92;99616.13;4972280;28;20483;-70
2022/11/16 00:45:51;;;;;;;2.50;1.40;;;;;;;18.48;53.18;99618.00;4974735;28;20262;-69
2022/11/16 00:48:16;;;;;;;2.78;1.20;;;;;;;18.53;53.53;99612.81;4975151;28;20050;-70
2022/11/16 00:50:43;;;;;;;5.18;1.63;;;;;;;18.58;54.22;99618.44;4957333;28;20081;-69
2022/11/16 00:53:11;;;;;;;2.28;1.45;;;;;;;18.62;53.73;99621.53;4957282;28;20469;-69
2022/11/16 00:55:36;;;;;;;5.45;2.00;;;;;;;18.65;53.50;99609.44;4973235;28;20399;-68
2022/11/16 00:58:02;;;;;;;1.70;1.40;;;;;;;18.68;53.45;99606.31;4973521;28;20035;-68
2022/11/16 01:00:27;;;;;;;1.98;1.45;;;;;;;18.70;53.34;99612.34;4974043;28;20047;-68
2022/11/16 01:02:53;;;;;;;4.43;1.88;;;;;;;18.72;53.63;99596.69;4973603;28;20118;-67
2022/11/16 01:05:19;;;;;;;3.88;1.30;;;;;;;18.76;53.65;99601.47;4957530;28;20034;-67
2022/11/16 01:07:45;;;;;;;20.48;1.70;;;;;;;18.77;53.92;99595.00;4957418;28;20039;-67
2022/11/16 01:10:12;;;;;;;2.75;1.40;;;;;;;18.80;53.06;99594.59;4973189;28;20127;-67
2022/11/16 01:12:38;;;;;;;1.67;1.38;;;;;;;18.81;53.51;99601.69;4973419;28;20031;-66
2022/11/16 01:15:06;;;;;;;2.40;1.63;;;;;;;18.84;53.16;99590.41;4974899;28;20030;-66
2022/11/16 01:17:31;;;;;;;3.17;1.30;;;;;;;18.84;53.20;99592.28;4973407;28;20607;-66
2022/11/16 01:19:56;;;;;;;1.83;1.40;;;;;;;18.86;53.25;99593.75;4973130;28;20031;-66
2022/11/16 01:22:22;;;;;;;3.15;1.70;;;;;;;18.89;53.08;99595.19;4957101;28;20031;-66
2022/11/16 01:24:47;;;;;;;1.65;1.30;;;;;;;18.90;52.79;99594.16;4973175;28;20026;-66
2022/11/16 01:27:13;;;;;;;2.65;1.65;;;;;;;18.87;53.28;99589.97;4973531;28;20061;-66
2022/11/16 01:29:38;;;;;;;3.13;1.30;;;;;;;18.87;53.71;99592.69;4973008;28;20400;-66
2022/11/16 01:32:04;;;;;;;10.63;1.58;;;;;;;18.85;53.51;99602.91;4974277;28;20444;-66
2022/11/16 01:34:29;;;;;;;1.35;1.20;;;;;;;18.84;53.41;99593.13;4973140;28;20038;-65
2022/11/16 01:36:55;;;;;;;1.70;1.52;;;;;;;18.83;53.72;99588.75;4974111;28;20039;-65
2022/11/16 01:39:20;;;;;;;1.95;1.60;;;;;;;18.83;53.41;99586.03;4973354;28;20030;-65
2022/11/16 01:41:46;;;;;;;1.83;1.60;;;;;;;18.86;53.01;99585.59;4974049;28;20054;-65
2022/11/16 01:44:30;;;;;;;2.65;1.50;;;;;;;18.86;53.06;99593.75;4972920;28;20445;-65
2022/11/16 01:46:55;;;;;;;2.03;1.20;;;;;;;18.87;53.08;99592.69;4974187;28;20031;-65
2022/11/16 01:49:23;;;;;;;2.35;1.25;;;;;;;18.87;53.14;99600.00;4956816;28;20045;-65
2022/11/16 01:51:51;;;;;;;2.95;1.55;;;;;;;18.87;53.89;99595.38;4972895;28;20093;-65
2022/11/16 01:54:17;;;;;;;4.32;1.20;;;;;;;18.89;53.39;99593.31;4973355;28;20023;-65
2022/11/16 01:56:44;;;;;;;2.78;1.42;;;;;;;18.90;53.08;99597.69;4956726;28;20181;-65
2022/11/16 01:59:11;;;;;;;2.08;1.23;;;;;;;18.91;53.61;99591.22;4972687;28;20039;-65
2022/11/16 02:01:36;;;;;;;2.88;1.55;;;;;;;18.91;53.85;99591.22;4956604;28;20043;-65
2022/11/16 02:04:01;;;;;;;2.67;0.95;;;;;;;18.93;53.54;99599.97;4953273;28;20142;-65
2022/11/16 02:06:29;;;;;;;2.20;1.00;;;;;;;18.92;53.52;99587.47;4969706;28;20085;-65
2022/11/16 02:12:05;;;;;;;3.05;1.00;;;;;;;18.91;54.01;99585.78;4973697;28;20069;-65
2022/11/16 02:15:04;;;;;;;1.02;1.00;;;;;;;18.93;53.88;99583.69;4956795;28;20039;-66
2022/11/16 02:18:07;;;;;;;1.25;0.93;;;;;;;18.90;53.78;99584.13;4972506;28;20527;-66
2022/11/16 02:21:06;;;;;;;0.93;0.80;;;;;;;18.88;53.97;99588.94;4972531;28;20038;-66
2022/11/16 02:23:58;;;;;;;0.77;0.77;;;;;;;18.89;54.05;99577.03;4959906;28;20043;-66
2022/11/16 02:26:27;;;;;;;1.00;0.80;;;;;;;18.91;54.24;99577.66;4973712;28;20093;-66
2022/11/16 02:29:06;;;;;;;4.35;1.02;;;;;;;18.93;54.10;99572.84;4972529;28;20038;-66
2022/11/16 02:31:57;;;;;;;1.27;0.70;;;;;;;18.93;54.00;99567.41;4956472;28;20046;-66
2022/11/16 02:34:26;;;;;;;1.55;0.90;;;;;;;18.92;54.21;99571.19;4955983;28;20055;-66
2022/11/16 02:36:53;;;;;;;2.33;0.52;;;;;;;18.89;53.76;99566.19;4956828;28;20109;-66
2022/11/16 02:39:21;;;;;;;1.83;0.80;;;;;;;18.92;54.14;99568.47;4957066;29;20031;-66
2022/11/16 02:41:47;;;;;;;1.92;0.80;;;;;;;18.96;54.17;99572.41;4940737;29;20150;-66
2022/11/16 02:44:28;;;;;;;2.03;0.93;;;;;;;18.95;53.23;99576.19;4940883;29;20050;-66
2022/11/16 02:46:58;;;;;;;1.92;1.08;;;;;;;18.98;53.91;99581.16;4974134;28;20047;-66
2022/11/16 02:49:25;;;;;;;1.23;0.80;;;;;;;19.00;53.66;99579.09;4959681;28;20031;-65
2022/11/16 02:51:52;;;;;;;1.55;1.00;;;;;;;19.01;53.53;99588.88;4975899;28;20031;-65
2022/11/16 02:54:19;;;;;;;0.80;0.75;;;;;;;19.02;54.23;99585.13;4976266;28;20023;-65
2022/11/16 02:57:02;;;;;;;4.22;1.13;;;;;;;19.01;54.05;99593.50;4975574;28;20034;-65
2022/11/16 02:59:40;;;;;;;8.10;0.90;;;;;;;18.96;54.13;99583.25;4976599;28;20114;-66
2022/11/16 03:02:38;;;;;;;3.95;0.60;;;;;;;18.91;54.43;99580.38;4959416;28;20027;-70
2022/11/16 03:05:09;;;;;;;2.00;0.95;;;;;;;18.85;53.90;99580.38;4974720;28;20500;-69
2022/11/16 03:07:41;;;;;;;1.35;0.80;;;;;;;18.79;54.53;99586.69;4975365;28;20031;-68
2022/11/16 03:10:07;;;;;;;0.88;0.70;;;;;;;18.74;54.53;99594.59;4975338;28;20034;-67
2022/11/16 03:12:34;;;;;;;2.10;0.73;;;;;;;18.71;54.29;99579.56;4959123;28;20030;-66
2022/11/16 03:15:08;;;;;;;3.03;0.98;;;;;;;18.72;54.35;99581.25;4959944;28;20027;-66
2022/11/16 03:17:40;;;;;;;1.50;0.88;;;;;;;18.73;54.59;99592.94;4975405;28;20045;-66
2022/11/16 03:20:13;;;;;;;1.45;0.60;;;;;;;18.76;54.47;99597.94;4975279;28;20039;-66
2022/11/16 03:22:41;;;;;;;0.70;0.70;;;;;;;18.76;53.99;99603.38;4959257;28;20035;-66
2022/11/16 03:25:08;;;;;;;2.00;0.47;;;;;;;18.76;54.06;99604.19;4975560;28;20045;-66
2022/11/16 03:27:43;;;;;;;3.03;0.60;;;;;;;18.79;53.96;99601.06;4975182;28;20030;-66
2022/11/16 03:30:13;;;;;;;1.25;0.65;;;;;;;18.80;54.05;99610.03;4975753;28;20025;-65
2022/11/16 03:32:55;;;;;;;0.52;0.52;;;;;;;18.80;53.94;99605.44;4959103;28;20563;-65
2022/11/16 03:35:25;;;;;;;1.10;0.70;;;;;;;18.78;53.55;99618.41;4959063;28;20035;-65
2022/11/16 03:37:53;;;;;;;1.55;0.80;;;;;;;18.80;54.21;99615.47;4975101;28;20038;-65
2022/11/16 03:40:18;;;;;;;0.77;0.60;;;;;;;18.83;54.03;99615.03;4958766;28;20109;-65
2022/11/16 03:42:45;;;;;;;0.90;0.63;;;;;;;18.86;53.97;99620.88;4958931;28;20047;-65
2022/11/16 03:45:11;;;;;;;1.50;0.60;;;;;;;18.88;54.24;99624.22;4974204;28;20385;-65
2022/11/16 03:47:36;;;;;;;2.88;0.80;;;;;;;18.85;53.59;99613.78;4974714;28;20070;-67
2022/11/16 03:50:02;;;;;;;1.30;0.60;;;;;;;18.86;53.68;99622.75;4958469;28;20500;-67
2022/11/16 03:52:28;;;;;;;1.83;1.00;;;;;;;18.79;53.97;99622.75;4974643;28;20030;-66
2022/11/16 03:54:53;;;;;;;2.78;0.93;;;;;;;18.77;53.46;99622.16;4974437;28;20499;-66
2022/11/16 03:57:19;;;;;;;3.05;1.08;;;;;;;18.76;53.22;99620.47;4974952;28;20496;-66
2022/11/16 03:59:45;;;;;;;1.40;1.25;;;;;;;18.77;53.47;99611.28;4958336;28;20409;-66
2022/11/16 04:02:10;;;;;;;1.17;0.65;;;;;;;18.76;53.58;99615.03;4958451;28;20059;-65
2022/11/16 04:28:11;;;;;;;3.17;1.02;;;;;;;19.01;53.13;99642.34;4974647;28;20093;-65
2022/11/16 04:29:19;;;;;;;2.05;1.10;;;;;;;19.05;53.04;99658.00;4974365;28;20051;-65
2022/11/16 04:39:58;;;;;;;1.90;1.10;;;;;;;19.07;52.85;99669.47;4974583;28;20057;-65
2022/11/16 04:42:23;;;;;;;3.50;1.48;;;;;;;19.07;52.76;99672.19;4958654;28;20079;-65
2022/11/16 04:47:32;;;;;;;2.58;1.23;;;;;;;19.06;52.57;99673.25;4974572;28;20088;-65
2022/11/16 04:49:58;;;;;;;2.38;1.27;;;;;;;19.04;52.88;99666.34;4974306;28;20031;-64
2022/11/16 04:52:23;;;;;;;3.78;1.42;;;;;;;19.05;52.93;99676.16;4975683;28;20034;-64
2022/11/16 04:54:48;;;;;;;3.33;1.48;;;;;;;19.05;52.52;99679.72;4975572;28;20576;-64
2022/11/16 04:57:14;;;;;;;5.70;1.77;;;;;;;19.01;52.43;99672.22;4958236;28;20027;-65
2022/11/16 04:59:39;;;;;;;3.33;1.38;;;;;;;19.00;52.44;99676.81;4958053;28;20046;-64
2022/11/16 05:02:07;;;;;;;5.13;1.50;;;;;;;19.00;52.13;99684.09;4975385;28;20047;-64
2022/11/16 05:04:33;;;;;;;3.80;1.15;;;;;;;18.97;52.22;99677.22;4974094;28;20050;-64
2022/11/16 05:06:59;;;;;;;2.22;1.23;;;;;;;18.95;52.14;99683.91;4957705;28;20080;-64
2022/11/16 05:09:24;;;;;;;3.15;1.30;;;;;;;18.95;52.47;99686.63;4974217;28;20114;-64
2022/11/16 05:11:49;;;;;;;4.90;1.17;;;;;;;18.92;51.95;99687.88;4973564;28;20039;-64
2022/11/16 05:14:15;;;;;;;1.30;0.95;;;;;;;18.89;52.57;99680.16;4957663;28;20035;-64
2022/11/16 05:16:40;;;;;;;3.67;1.10;;;;;;;18.87;51.93;99679.53;4973789;28;20438;-64
2022/11/16 05:21:49;;;;;;;1.90;1.35;;;;;;;18.81;52.37;99680.38;4973777;28;20401;-64
2022/11/16 05:24:33;;;;;;;2.78;1.15;;;;;;;18.76;52.31;99661.16;4975122;28;20054;-64
2022/11/16 05:27:04;;;;;;;6.93;1.27;;;;;;;18.72;51.71;99684.34;4974855;28;20094;-64
2022/11/16 05:29:29;;;;;;;1.52;0.80;;;;;;;18.67;52.08;99684.16;4973845;28;20110;-64
2022/11/16 05:31:55;;;;;;;5.63;1.50;;;;;;;18.62;52.16;99681.19;4973601;28;20059;-64
2022/11/16 05:34:20;;;;;;;3.47;0.93;;;;;;;18.54;51.63;99686.84;4973491;28;20027;-64
2022/11/16 05:36:46;;;;;;;1.55;0.90;;;;;;;18.52;51.92;99695.19;4974648;28;20027;-64
2022/11/16 05:39:11;;;;;;;1.70;0.63;;;;;;;18.49;51.96;99695.63;4957584;28;20034;-64
2022/11/16 05:41:37;;;;;;;1.65;0.70;;;;;;;18.46;51.16;99695.16;4973234;28;20058;-64
2022/11/16 05:44:03;;;;;;;1.98;1.08;;;;;;;18.46;51.20;99706.00;4973311;28;20126;-64
2022/11/16 05:46:28;;;;;;;5.25;0.90;;;;;;;18.43;51.00;99701.84;4973402;28;20427;-64
2022/11/16 05:48:53;;;;;;;1.45;0.77;;;;;;;18.47;50.92;99704.97;4973205;28;20034;-64
2022/11/16 05:51:19;;;;;;;8.68;1.02;;;;;;;18.46;51.25;99711.44;4957699;28;20034;-64
2022/11/16 05:53:44;;;;;;;3.15;0.77;;;;;;;18.47;51.55;99703.09;4973432;28;20035;-64
2022/11/16 05:56:10;;;;;;;3.08;0.93;;;;;;;18.46;51.13;99706.00;4973172;28;20035;-64
2022/11/16 05:58:36;;;;;;;10.05;1.45;;;;;;;18.42;50.90;99705.59;4973455;28;20058;-64
2022/11/16 06:01:02;;;;;;;5.13;0.68;;;;;;;18.39;51.57;99705.19;4956909;28;20120;-64
2022/11/16 06:03:28;;;;;;;2.47;0.63;;;;;;;18.38;51.01;99711.63;4957418;28;20025;-63
2022/11/16 06:05:55;;;;;;;6.45;0.93;;;;;;;18.34;50.92;99718.53;4956858;28;20432;-64
2022/11/16 06:08:20;;;;;;;0.95;0.85;;;;;;;18.25;51.05;99706.19;4973880;28;20155;-64
2022/11/16 06:10:45;;;;;;;6.85;0.85;;;;;;;18.24;51.16;99723.50;4976957;28;20205;-64
2022/11/16 06:13:11;;;;;;;3.40;1.00;;;;;;;18.20;50.34;99727.66;4976921;28;20042;-64
2022/11/16 06:15:37;;;;;;;3.30;1.98;;;;;;;18.15;51.41;99732.84;4977943;28;20027;-64
2022/11/16 06:18:02;;;;;;;7.60;0.88;;;;;;;18.09;51.04;99731.78;4977246;28;20114;-64
2022/11/16 06:20:28;;;;;;;2.00;0.73;;;;;;;18.04;51.16;99740.53;4976579;28;20046;-64
2022/11/16 06:22:53;;;;;;;3.17;1.23;;;;;;;18.01;50.30;99740.94;4976526;28;20051;-64
2022/11/16 06:25:19;;;;;;;9.10;1.20;;;;;;;17.94;51.07;99731.97;4976563;28;20045;-64
2022/11/16 06:27:44;;;;;;;5.07;1.02;;;;;;;17.92;50.21;99733.22;4976260;28;20435;-64
2022/11/16 06:30:10;;;;;;;3.85;1.20;;;;;;;17.90;50.29;99733.41;4976786;28;20026;-64
2022/11/16 06:32:35;;;;;;;2.83;0.98;;;;;;;17.86;50.49;99736.75;4976399;28;20043;-64
2022/11/16 06:35:00;;;;;;;3.25;1.52;;;;;;;17.82;51.22;99741.72;4977022;28;20038;-63
2022/11/16 06:37:26;;;;;;;2.80;1.60;;;;;;;17.79;50.55;99736.72;4978121;28;20042;-63
2022/11/16 06:39:51;;;;;;;7.10;1.42;;;;;;;17.73;50.85;99740.22;4978438;28;20121;-64
2022/11/16 06:42:16;;;;;;;4.22;2.53;;;;;;;17.76;50.86;99742.53;4978545;28;20047;-64
2022/11/16 06:44:42;;;;;;;6.13;2.40;;;;;;;17.71;50.59;99745.00;4960764;28;20374;-64
2022/11/16 06:47:07;;;;;;;5.78;2.47;;;;;;;17.65;50.64;99748.53;4941526;28;20050;-64
2022/11/16 06:49:32;;;;;;;12.07;3.22;;;;;;;17.61;50.85;99749.97;4960640;28;20027;-64
2022/11/16 06:51:58;;;;;;;9.85;3.30;;;;;;;17.57;50.45;99753.25;4976644;28;20117;-64
2022/11/16 06:54:23;;;;;;;14.05;2.90;;;;;;;17.51;50.01;99749.44;4960623;28;20089;-63
2022/11/16 06:56:48;;;;;;;10.70;2.70;;;;;;;17.50;50.28;99752.38;4976297;28;20039;-65
2022/11/16 06:59:14;;;;;;;12.98;3.92;;;;;;;17.47;50.26;99753.63;4976595;28;20110;-63
2022/11/16 07:01:39;;;;;;;12.07;3.67;;;;;;;17.45;50.27;99751.09;4976709;28;20047;-64
2022/11/16 07:04:05;;;;;;;6.05;2.55;;;;;;;17.45;50.65;99755.66;4976514;28;20037;-64
2022/11/16 07:06:30;;;;;;;11.35;2.83;;;;;;;17.48;50.02;99760.69;4977078;28;20031;-64
2022/11/16 07:08:55;;;;;;;12.35;2.40;;;;;;;17.50;50.28;99769.47;4960011;28;20070;-64
2022/11/16 07:11:21;;;;;;;7.03;1.98;;;;;;;17.46;49.88;99769.03;4959719;28;20207;-64
2022/11/16 07:13:48;;;;;;;4.90;1.90;;;;;;;17.47;50.21;99767.16;4960025;28;20085;-64
2022/11/16 07:16:13;;;;;;;15.48;2.63;;;;;;;17.51;50.05;99768.41;4960211;28;20042;-64
2022/11/16 07:18:40;;;;;;;6.57;2.00;;;;;;;17.49;50.05;99767.78;4975763;28;20374;-64
2022/11/16 07:21:13;;;;;;;12.27;2.35;;;;;;;17.49;50.07;99773.19;4976446;28;20058;-64
2022/11/16 07:23:39;;;;;;;4.95;1.20;;;;;;;17.50;50.40;99774.03;4976104;28;20061;-64
2022/11/16 07:26:05;;;;;;;4.15;1.38;;;;;;;17.49;49.83;99778.59;4975882;28;20432;-64
2022/11/16 07:28:31;;;;;;;8.38;1.10;;;;;;;17.51;50.29;99775.69;4959150;28;20057;-64
2022/11/16 07:31:03;;;;;;;5.22;1.05;;;;;;;17.54;50.05;99776.16;4959559;28;20050;-64
2022/11/16 07:33:28;;;;;;;7.28;0.90;;;;;;;17.57;49.76;99786.59;4977184;28;20027;-63
2022/11/16 07:35:58;;;;;;;5.65;1.15;;;;;;;17.58;49.38;99785.56;4959783;28;20559;-64
2022/11/16 07:38:24;;;;;;;7.55;1.40;;;;;;;17.60;49.62;99786.22;4979683;28;20042;-64
2022/11/16 07:40:49;;;;;;;10.40;1.20;;;;;;;17.63;49.90;99787.66;4985729;28;20046;-64
2022/11/16 07:43:15;;;;;;;5.22;1.20;;;;;;;17.61;49.46;99781.63;4975706;28;20062;-65
2022/11/16 07:45:40;;;;;;;4.97;1.30;;;;;;;17.64;48.97;99798.31;4975880;28;20101;-65
2022/11/16 07:48:05;;;;;;;4.15;1.30;;;;;;;17.63;49.29;99785.81;4976304;28;20070;-67
2022/11/16 07:50:31;;;;;;;7.03;1.45;;;;;;;17.68;49.64;99791.47;4959166;28;20043;-65
2022/11/16 07:52:56;;;;;;;4.85;1.25;;;;;;;17.67;49.64;99787.06;4975083;28;20034;-65
2022/11/16 07:55:24;;;;;;;6.85;1.95;;;;;;;17.75;48.88;99800.47;4975024;28;20042;-64
2022/11/16 07:57:49;;;;;;;11.02;1.25;;;;;;;17.77;50.03;99792.97;4975162;28;20455;-65
2022/11/16 08:00:15;;;;;;;9.25;1.58;;;;;;;17.81;48.59;99793.41;4959534;28;20110;-64
2022/11/16 08:02:41;;;;;;;6.47;1.10;;;;;;;17.83;49.58;99800.28;4974884;28;20512;-64
2022/11/16 08:05:06;;;;;;;11.98;1.30;;;;;;;17.84;49.68;99801.94;4958710;28;20038;-64
2022/11/16 08:07:33;;;;;;;5.03;0.85;;;;;;;17.87;48.68;99804.25;4959173;28;20031;-64
2022/11/16 08:09:58;;;;;;;7.95;1.15;;;;;;;17.90;50.09;99809.28;4974937;28;20031;-65
2022/11/16 08:12:23;;;;;;;9.80;2.53;;;;;;;17.94;49.38;99809.72;4976448;28;20456;-65
2022/11/16 08:14:49;;;;;;;5.82;1.13;;;;;;;17.99;49.38;99801.81;4958578;28;20065;-65
2022/11/16 08:17:14;;;;;;;6.47;0.80;;;;;;;18.04;48.95;99800.16;4958388;28;20046;-65
2022/11/16 08:19:41;;;;;;;4.53;1.40;;;;;;;18.11;49.17;99810.22;4974642;28;20031;-65
2022/11/16 08:22:06;;;;;;;6.13;1.02;;;;;;;18.16;49.10;99796.88;4958543;28;20612;-65
2022/11/16 08:24:32;;;;;;;3.42;0.80;;;;;;;18.23;49.31;99803.16;4974498;28;20031;-64
2022/11/16 08:26:57;;;;;;;6.15;1.17;;;;;;;18.26;48.60;99808.16;4974900;28;20042;-65
2022/11/16 08:29:24;;;;;;;5.88;1.08;;;;;;;18.30;48.63;99810.28;4958780;28;20150;-65
2022/11/16 08:31:49;;;;;;;5.57;1.25;;;;;;;18.34;48.63;99802.59;4975336;28;20039;-65
2022/11/16 08:34:15;;;;;;;8.82;1.40;;;;;;;18.43;48.69;99809.47;4974614;28;20046;-65
2022/11/16 08:36:40;;;;;;;7.90;0.98;;;;;;;18.53;48.33;99809.97;4957824;28;20085;-64
2022/11/16 08:39:06;;;;;;;6.40;1.13;;;;;;;18.64;48.65;99801.22;4974861;28;20026;-65
2022/11/16 08:41:34;;;;;;;6.15;1.30;;;;;;;18.76;48.10;99806.88;4974546;28;20140;-65
2022/11/16 08:44:00;;;;;;;4.85;1.02;;;;;;;18.78;47.81;99811.03;4974474;28;20038;-65
2022/11/16 08:46:25;;;;;;;7.68;1.10;;;;;;;18.85;48.06;99813.75;4958408;28;20065;-65
2022/11/16 08:48:55;;;;;;;7.28;1.02;;;;;;;18.94;47.75;99810.63;4975540;28;20113;-65
2022/11/16 08:51:20;;;;;;;12.77;0.95;;;;;;;18.96;48.12;99810.41;4975872;28;20391;-65
2022/11/16 08:53:46;;;;;;;5.10;1.45;;;;;;;19.02;47.94;99815.84;4942022;28;20031;-65
2022/11/16 08:56:12;;;;;;;7.57;1.33;;;;;;;19.16;47.63;99822.13;4957961;28;20089;-65
2022/11/16 08:58:39;;;;;;;1.92;0.93;;;;;;;19.15;47.48;99826.69;4973995;28;20027;-64
2022/11/16 09:01:12;;;;;;;5.60;1.13;;;;;;;19.19;47.68;99830.69;4957863;28;20416;-64
2022/11/16 09:03:38;;;;;;;3.92;0.63;;;;;;;19.33;47.01;99838.81;4974216;28;20033;-65
2022/11/16 09:06:05;;;;;;;2.00;0.82;;;;;;;19.53;47.32;99845.94;4974515;28;20105;-65
2022/11/16 09:08:30;;;;;;;4.35;1.65;;;;;;;19.73;46.73;99837.75;4957756;28;20042;-65
2022/11/16 09:10:56;;;;;;;5.65;1.20;;;;;;;20.00;45.98;99842.06;4941613;28;20404;-65
2022/11/16 09:13:21;;;;;;;4.25;0.75;;;;;;;20.19;46.10;99845.75;4957599;28;20548;-65
2022/11/16 09:15:46;;;;;;;3.92;0.75;;;;;;;20.44;45.90;99844.00;4973801;28;20037;-65
2022/11/16 09:18:12;;;;;;;3.08;0.77;;;;;;;20.69;45.40;99847.63;4975432;28;20054;-65
2022/11/16 09:20:42;;;;;;;2.67;0.75;;;;;;;21.01;44.68;99848.47;4974812;28;20038;-65
2022/11/16 09:23:07;;;;;;;3.30;1.05;;;;;;;21.29;44.36;99848.06;4973873;28;20027;-65
2022/11/16 09:25:33;;;;;;;5.93;1.90;;;;;;;21.70;44.76;99850.19;4941448;28;20042;-65
2022/11/16 09:27:58;;;;;;;3.60;1.05;;;;;;;21.98;43.31;99845.94;4957539;28;20113;-65
2022/11/16 09:30:24;;;;;;;4.90;0.80;;;;;;;22.33;43.30;99835.25;4974075;28;20031;-65
2022/11/16 09:32:49;;;;;;;3.10;0.70;;;;;;;22.51;43.36;99837.94;4973383;28;20045;-65
2022/11/16 09:35:16;;;;;;;3.40;0.73;;;;;;;22.78;42.61;99832.16;4941512;28;20089;-65
2022/11/16 09:37:41;;;;;;;5.05;0.75;;;;;;;23.18;41.80;99838.63;4957689;28;20034;-65
2022/11/16 09:40:07;;;;;;;1.65;0.80;;;;;;;23.46;41.82;99835.25;4974705;28;20043;-65
2022/11/16 09:42:41;;;;;;;1.60;0.75;;;;;;;23.74;41.02;99830.75;4973236;28;20059;-65
2022/11/16 09:45:15;;;;;;;0.77;0.50;;;;;;;23.94;41.15;99832.25;4977841;28;20050;-65
2022/11/16 09:47:47;;;;;;;4.13;1.05;;;;;;;24.14;40.59;99835.47;4977397;28;20041;-66
2022/11/16 09:50:27;;;;;;;1.67;0.45;;;;;;;24.05;41.14;99834.97;4977365;28;20037;-65
2022/11/16 09:52:55;;;;;;;3.60;0.70;;;;;;;23.91;40.89;99833.56;4978422;28;20041;-65
2022/11/16 09:55:30;;;;;;;2.58;1.13;;;;;;;23.84;41.29;99843.81;4977097;28;20516;-65
2022/11/16 09:57:57;;;;;;;2.70;0.77;;;;;;;23.43;41.21;99847.50;4977109;28;20031;-65
2022/11/16 10:00:23;;;;;;;7.47;0.80;;;;;;;22.94;42.67;99851.44;4977380;28;20045;-65
2022/11/16 10:03:00;;;;;;;5.00;1.00;;;;;;;22.90;41.66;99850.22;4977130;28;20109;-65
2022/11/16 10:05:34;;;;;;;12.73;1.33;;;;;;;22.70;42.42;99851.59;4977149;28;20110;-65
2022/11/16 10:08:09;;;;;;;8.05;0.80;;;;;;;22.17;42.01;99841.31;4960968;28;20050;-65
2022/11/16 10:10:45;;;;;;;1.77;0.60;;;;;;;21.84;42.21;99846.28;4960817;28;20030;-65
2022/11/16 10:13:42;;;;;;;8.77;1.05;;;;;;;21.66;42.70;99838.09;4976717;28;20038;-65
2022/11/16 10:16:19;;;;;;;2.20;0.90;;;;;;;22.20;42.06;99829.09;4960931;28;20113;-65
2022/11/16 10:19:13;;;;;;;4.40;0.57;;;;;;;23.11;40.51;99832.47;4960660;28;20034;-65
2022/11/16 10:21:53;;;;;;;2.78;0.77;;;;;;;23.54;40.49;99837.63;4976587;28;20030;-65
2022/11/16 10:24:34;;;;;;;2.47;0.77;;;;;;;23.66;40.27;99835.75;4976813;28;20054;-65
2022/11/16 10:27:21;;;;;;;5.60;1.05;;;;;;;24.10;39.88;99831.53;4960479;28;20058;-65
2022/11/16 10:30:00;;;;;;;3.05;0.40;;;;;;;24.23;40.06;99842.25;4977678;28;20031;-65
2022/11/16 10:32:28;;;;;;;2.25;0.90;;;;;;;23.98;39.63;99838.94;4960542;28;20027;-65
2022/11/16 10:35:15;;;;;;;3.80;0.60;;;;;;;24.01;39.48;99838.44;4976721;28;20034;-65
2022/11/16 10:37:49;;;;;;;3.20;0.40;;;;;;;23.50;40.11;99829.09;4976431;28;20045;-65
2022/11/16 10:40:20;;;;;;;2.80;0.82;;;;;;;23.06;40.81;99830.41;4960372;28;20039;-66
2022/11/16 10:43:18;;;;;;;2.13;0.57;;;;;;;23.73;39.38;99831.81;4976410;28;20078;-65
2022/11/16 10:46:12;;;;;;;3.05;0.32;;;;;;;23.44;40.27;99816.38;4971431;28;20034;-65
2022/11/16 10:49:10;;;;;;;3.30;0.73;;;;;;;23.69;39.22;99818.84;4946954;28;20039;-65
2022/11/16 10:51:36;;;;;;;1.15;0.50;;;;;;;23.54;40.05;99810.28;4976376;28;20085;-65
2022/11/16 10:54:03;;;;;;;3.40;0.68;;;;;;;23.86;39.70;99803.38;4959942;28;20027;-65
2022/11/16 10:56:31;;;;;;;2.13;0.60;;;;;;;23.89;39.34;99802.06;4976325;28;20039;-65
2022/11/16 10:59:01;;;;;;;2.20;0.50;;;;;;;23.72;39.25;99805.53;4976369;28;20038;-65
2022/11/16 11:01:56;;;;;;;3.55;0.70;;;;;;;23.86;39.01;99803.38;4959802;28;20448;-65
2022/11/16 11:04:26;;;;;;;6.65;1.35;;;;;;;23.40;39.42;99795.19;4976220;28;20420;-65
2022/11/16 11:07:20;;;;;;;2.05;0.50;;;;;;;23.05;40.46;99797.88;4976108;28;20447;-64
2022/11/16 11:09:51;;;;;;;6.13;0.50;;;;;;;22.96;40.70;99799.28;4976914;28;20559;-64
2022/11/16 11:12:37;;;;;;;5.95;0.68;;;;;;;22.81;40.36;99798.91;4976615;28;20027;-65
2022/11/16 11:15:25;;;;;;;8.65;0.75;;;;;;;22.57;40.30;99801.53;4961907;28;20561;-65
2022/11/16 11:18:25;;;;;;;4.15;0.60;;;;;;;22.34;41.34;99801.44;4976127;28;20038;-65
2022/11/16 11:21:06;;;;;;;1.13;0.30;;;;;;;22.16;41.55;99801.47;4975878;28;20027;-66
2022/11/16 11:23:44;;;;;;;3.22;0.70;;;;;;;22.39;40.02;99785.19;4976719;28;20404;-66
2022/11/16 11:26:33;;;;;;;3.17;0.40;;;;;;;22.48;40.06;99789.25;4975521;28;20034;-66
2022/11/16 11:29:00;;;;;;;6.43;1.05;;;;;;;22.81;39.88;99775.13;4960084;28;20042;-66
2022/11/16 11:31:37;;;;;;;5.22;1.02;;;;;;;22.53;40.10;99775.75;4975437;28;20508;-66
2022/11/16 11:34:09;;;;;;;5.88;1.15;;;;;;;22.78;40.68;99774.78;4975285;28;20382;-66
2022/11/16 11:36:38;;;;;;;2.90;0.80;;;;;;;22.48;41.34;99772.88;4976749;28;20051;-66
2022/11/16 11:39:12;;;;;;;3.13;0.50;;;;;;;22.92;40.79;99762.59;4959513;28;20022;-66
2022/11/16 11:41:40;;;;;;;3.85;1.05;;;;;;;22.85;40.70;99756.38;4974878;28;20389;-66
2022/11/16 11:44:16;;;;;;;4.55;0.55;;;;;;;22.73;40.40;99769.19;4975534;28;20039;-66
2022/11/16 11:46:49;;;;;;;4.03;0.82;;;;;;;22.75;40.05;99767.06;4976523;28;20027;-65
2022/11/16 11:49:28;;;;;;;2.95;0.40;;;;;;;22.55;40.22;99767.34;4976299;28;20038;-66
2022/11/16 11:51:58;;;;;;;4.72;0.77;;;;;;;22.29;40.83;99760.34;4975016;28;20035;-66
2022/11/16 11:54:31;;;;;;;4.28;0.50;;;;;;;22.05;40.24;99755.88;4975444;28;20030;-66
2022/11/16 11:56:56;;;;;;;2.85;0.50;;;;;;;22.02;40.50;99759.06;4959019;28;20424;-66
2022/11/16 11:59:24;;;;;;;6.07;0.60;;;;;;;21.93;40.64;99761.25;4958883;28;20035;-66
2022/11/16 12:01:55;;;;;;;0.90;0.38;;;;;;;22.08;40.86;99763.59;4975129;28;20033;-66
2022/11/16 12:04:48;;;;;;;1.75;0.60;;;;;;;22.15;40.95;99756.16;4975022;28;20031;-66
2022/11/16 12:07:23;;;;;;;3.60;0.60;;;;;;;22.71;39.84;99754.94;4975364;28;20043;-66
2022/11/16 12:10:16;;;;;;;4.82;0.70;;;;;;;22.65;39.76;99750.41;4975929;28;20019;-66
2022/11/16 12:13:00;;;;;;;3.85;0.85;;;;;;;22.46;41.25;99747.72;4945650;28;20057;-66
2022/11/16 12:15:38;;;;;;;3.92;2.10;;;;;;;22.46;40.68;99720.44;4974943;28;20026;-66
2022/11/16 12:18:19;;;;;;;3.70;0.60;;;;;;;22.91;39.79;99733.59;4975952;28;20050;-66
2022/11/16 12:21:11;;;;;;;3.95;0.77;;;;;;;23.00;40.60;99724.00;4975672;28;20047;-66
2022/11/16 12:24:11;;;;;;;2.20;0.68;;;;;;;23.04;39.74;99716.97;4974552;28;20377;-66
2022/11/16 12:27:07;;;;;;;7.97;0.70;;;;;;;23.45;39.42;99722.31;4968284;28;20119;-66
2022/11/16 12:30:13;;;;;;;4.57;0.80;;;;;;;23.73;39.04;99716.94;4975848;28;20069;-65